createdAt,value
2018-08-23T00:00:43.167Z,77.39
2018-08-23T00:03:46.859Z,77.70
2018-08-23T00:06:58.562Z,78.06
2018-08-23T00:10:03.340Z,78.13
2018-08-23T00:13:07.362Z,78.35
2018-08-23T00:16:11.054Z,78.06
2018-08-23T00:19:15.303Z,78.19
2018-08-23T00:22:24.242Z,78.31
2018-08-23T00:25:35.039Z,78.58
2018-08-23T00:28:38.841Z,78.73
2018-08-23T00:31:42.470Z,78.82
2018-08-23T00:34:46.099Z,79.03
2018-08-23T00:37:49.943Z,79.31
2018-08-23T00:40:53.528Z,79.70
2018-08-23T00:43:57.223Z,79.88
2018-08-23T00:47:00.772Z,80.19
2018-08-23T00:50:04.524Z,81.02
2018-08-23T00:53:08.109Z,81.02
2018-08-23T00:56:18.442Z,81.14
2018-08-23T00:59:22.014Z,81.69
2018-08-23T01:02:25.684Z,81.81
2018-08-23T01:05:35.963Z,82.11
2018-08-23T01:08:39.579Z,81.99
2018-08-23T01:11:45.697Z,82.30
2018-08-23T01:14:51.441Z,83.02
2018-08-23T01:18:14.314Z,83.13
2018-08-23T01:21:18.000Z,82.70
2018-08-23T01:24:21.844Z,83.03
2018-08-23T01:27:30.658Z,83.09
2018-08-23T01:30:34.558Z,83.52
2018-08-23T01:33:38.154Z,83.64
2018-08-23T01:36:42.363Z,83.21
2018-08-23T01:39:46.035Z,83.60
2018-08-23T01:42:49.643Z,84.02
2018-08-23T01:45:53.300Z,84.23
2018-08-23T01:48:56.945Z,84.32
2018-08-23T01:52:00.488Z,84.38
2018-08-23T01:55:04.109Z,84.11
2018-08-23T01:58:07.732Z,84.17
2018-08-23T02:01:13.962Z,84.14
2018-08-23T02:04:17.508Z,84.69
2018-08-23T02:07:21.095Z,84.92
2018-08-23T02:10:24.769Z,85.11
2018-08-23T02:13:29.098Z,85.40
2018-08-23T02:16:43.829Z,85.69
2018-08-23T02:19:49.238Z,86.05
2018-08-23T02:22:53.358Z,85.82
2018-08-23T02:25:56.939Z,86.27
2018-08-23T02:29:00.603Z,86.78
2018-08-23T02:32:05.509Z,87.33
2018-08-23T02:35:09.208Z,87.69
2018-08-23T02:38:12.882Z,87.31
2018-08-23T02:41:16.982Z,87.86
2018-08-23T02:44:20.640Z,88.37
2018-08-23T02:47:24.635Z,88.39
2018-08-23T02:50:28.216Z,88.33
2018-08-23T02:53:36.788Z,88.66
2018-08-23T02:56:41.095Z,88.83
2018-08-23T02:59:44.664Z,89.20
2018-08-23T03:02:48.490Z,89.19
2018-08-23T03:05:52.185Z,89.44
2018-08-23T03:08:55.849Z,89.33
2018-08-23T03:12:01.504Z,89.43
2018-08-23T03:15:06.456Z,89.31
2018-08-23T03:18:10.019Z,89.35
2018-08-23T03:21:13.648Z,89.74
2018-08-23T03:24:20.319Z,89.81
2018-08-23T03:27:23.891Z,89.94
2018-08-23T03:30:27.497Z,89.91
2018-08-23T03:33:32.759Z,89.90
2018-08-23T03:36:36.266Z,89.91
2018-08-23T03:39:39.850Z,89.89
2018-08-23T03:42:43.391Z,90.22
2018-08-23T03:45:46.951Z,90.43
2018-08-23T03:48:55.148Z,90.75
2018-08-23T03:51:59.180Z,90.99
2018-08-23T03:55:02.824Z,91.27
2018-08-23T03:58:06.440Z,91.39
2018-08-23T04:01:13.611Z,91.51
2018-08-23T04:04:17.164Z,91.63
2018-08-23T04:07:20.852Z,91.58
2018-08-23T04:10:25.049Z,91.55
2018-08-23T04:13:28.744Z,91.88
2018-08-23T04:16:32.709Z,91.94
2018-08-23T04:19:51.595Z,91.62
2018-08-23T04:22:56.253Z,91.58
2018-08-23T04:25:59.927Z,91.61
2018-08-23T04:29:03.476Z,91.71
2018-08-23T04:32:07.150Z,91.61
2018-08-23T04:35:13.431Z,91.32
2018-08-23T04:38:17.094Z,90.88
2018-08-23T04:41:20.650Z,90.48
2018-08-23T04:44:24.251Z,90.60
2018-08-23T04:47:27.814Z,90.78
2018-08-23T04:50:31.506Z,90.29
2018-08-23T04:53:35.272Z,89.84
2018-08-23T04:56:38.902Z,89.48
2018-08-23T04:59:42.515Z,89.44
2018-08-23T05:02:46.056Z,89.58
2018-08-23T05:05:49.591Z,89.10
2018-08-23T05:08:53.351Z,89.01
2018-08-23T05:11:57.010Z,89.07
2018-08-23T05:15:00.587Z,88.49
2018-08-23T05:18:04.158Z,88.84
2018-08-23T05:21:07.725Z,88.31
2018-08-23T05:24:12.686Z,87.69
2018-08-23T05:27:16.223Z,86.43
2018-08-23T05:30:19.844Z,85.92
2018-08-23T05:33:24.007Z,85.45
2018-08-23T05:36:27.582Z,84.58
2018-08-23T05:39:44.107Z,82.63
2018-08-23T05:42:54.203Z,80.49
2018-08-23T05:45:58.054Z,79.34
2018-08-23T05:49:01.597Z,76.07
2018-08-23T05:52:05.286Z,74.67
2018-08-23T05:55:08.892Z,73.04
2018-08-23T05:58:18.571Z,72.10
2018-08-23T06:01:22.194Z,71.53
2018-08-23T06:04:36.691Z,69.44
2018-08-23T06:07:40.321Z,67.28
2018-08-23T06:10:46.596Z,67.00
2018-08-23T06:13:50.190Z,66.59
2018-08-23T06:16:57.876Z,64.74
2018-08-23T06:20:01.616Z,65.16
2018-08-23T06:23:05.622Z,66.35
2018-08-23T06:26:09.287Z,66.26
2018-08-23T06:29:27.940Z,65.71
2018-08-23T06:32:31.608Z,64.28
2018-08-23T06:35:38.114Z,61.79
2018-08-23T06:38:46.025Z,59.09
2018-08-23T06:41:49.797Z,58.89
2018-08-23T06:44:54.604Z,61.18
2018-08-23T06:48:02.928Z,60.93
2018-08-23T06:51:10.749Z,60.70
2018-08-23T06:54:14.362Z,62.98
2018-08-23T06:57:17.993Z,65.19
2018-08-23T07:00:26.132Z,63.87
2018-08-23T07:03:30.697Z,64.88
2018-08-23T07:06:35.308Z,64.35
2018-08-23T07:09:41.766Z,64.18
2018-08-23T07:12:45.506Z,66.56
2018-08-23T07:15:53.314Z,64.23
2018-08-23T07:18:56.975Z,64.59
2018-08-23T07:22:02.458Z,64.44
2018-08-23T07:25:08.614Z,66.41
2018-08-23T07:28:12.352Z,64.46
2018-08-23T07:31:16.086Z,64.00
2018-08-23T07:34:19.782Z,63.74
2018-08-23T07:37:23.466Z,63.63
2018-08-23T07:40:27.132Z,63.54
2018-08-23T07:43:30.898Z,61.84
2018-08-23T07:46:34.497Z,60.99
2018-08-23T07:49:38.165Z,62.17
2018-08-23T07:52:46.064Z,60.64
2018-08-23T07:55:49.767Z,60.62
2018-08-23T07:58:54.673Z,64.27
2018-08-23T08:01:58.359Z,65.42
2018-08-23T08:05:02.305Z,66.89
2018-08-23T08:08:06.638Z,65.13
2018-08-23T08:11:10.257Z,64.63
2018-08-23T08:14:19.077Z,62.99
2018-08-23T08:17:31.194Z,61.35
2018-08-23T08:20:35.286Z,61.58
2018-08-23T08:23:39.048Z,62.64
2018-08-23T08:26:42.765Z,64.05
2018-08-23T08:29:46.388Z,66.15
2018-08-23T08:32:50.081Z,65.42
2018-08-23T08:36:00.344Z,64.84
2018-08-23T08:39:04.966Z,64.57
2018-08-23T08:42:08.661Z,62.58
2018-08-23T08:45:13.484Z,59.94
2018-08-23T08:48:22.419Z,62.87
2018-08-23T08:51:29.643Z,63.19
2018-08-23T08:54:33.239Z,63.11
2018-08-23T08:57:40.402Z,66.51
2018-08-23T09:00:51.557Z,64.71
2018-08-23T09:03:55.163Z,63.48
2018-08-23T09:06:58.855Z,62.95
2018-08-23T09:10:02.636Z,62.86
2018-08-23T09:13:06.576Z,61.33
2018-08-23T09:16:11.323Z,62.54
2018-08-23T09:19:15.044Z,62.57
2018-08-23T09:22:19.509Z,62.80
2018-08-23T09:25:27.450Z,60.76
2018-08-23T09:28:31.139Z,62.01
2018-08-23T09:31:34.887Z,60.84
2018-08-23T09:34:39.704Z,61.50
2018-08-23T09:37:43.434Z,61.13
2018-08-23T09:40:47.264Z,60.49
2018-08-23T09:43:51.036Z,60.90
2018-08-23T09:46:59.014Z,60.78
2018-08-23T09:50:02.869Z,61.85
2018-08-23T09:53:14.241Z,61.26
2018-08-23T09:56:23.026Z,59.63
2018-08-23T09:59:27.946Z,60.16
2018-08-23T10:02:37.075Z,58.55
2018-08-23T10:05:48.038Z,59.67
2018-08-23T10:09:03.206Z,59.85
2018-08-23T10:12:12.081Z,60.14
2018-08-23T10:15:21.306Z,59.82
2018-08-23T10:18:30.150Z,59.12
2018-08-23T10:23:42.352Z,58.04
2018-08-23T10:26:46.398Z,58.97
2018-08-23T10:29:50.135Z,59.00
2018-08-23T10:32:54.025Z,59.10
2018-08-23T10:35:57.859Z,57.26
2018-08-23T10:39:01.532Z,57.98
2018-08-23T10:42:09.282Z,57.01
2018-08-23T10:45:13.421Z,57.14
2018-08-23T10:48:18.291Z,57.74
2018-08-23T10:51:22.018Z,58.11
2018-08-23T10:54:25.641Z,56.42
2018-08-23T10:57:29.204Z,55.87
2018-08-23T11:00:32.862Z,53.93
2018-08-23T11:03:36.623Z,54.19
2018-08-23T11:06:45.356Z,52.91
2018-08-23T11:09:54.208Z,51.89
2018-08-23T11:13:02.764Z,52.35
2018-08-23T11:16:11.618Z,53.24
2018-08-23T11:19:20.489Z,53.99
2018-08-23T11:22:28.365Z,53.73
2018-08-23T11:25:31.991Z,54.99
2018-08-23T11:28:35.610Z,53.56
2018-08-23T11:31:39.275Z,51.42
2018-08-23T11:34:42.930Z,51.06
2018-08-23T11:37:46.556Z,49.97
2018-08-23T11:40:50.331Z,52.83
2018-08-23T11:43:54.015Z,52.48
2018-08-23T11:46:57.721Z,52.44
2018-08-23T11:50:01.713Z,51.38
2018-08-23T11:53:05.764Z,51.16
2018-08-23T11:56:09.769Z,51.10
2018-08-23T11:59:13.648Z,51.07
2018-08-23T12:02:17.146Z,51.72
2018-08-23T12:05:20.929Z,50.51
2018-08-23T12:08:24.696Z,50.09
2018-08-23T12:11:28.375Z,50.39
2018-08-23T12:14:32.118Z,48.90
2018-08-23T12:17:35.840Z,49.50
2018-08-23T12:20:39.596Z,48.12
2018-08-23T12:23:43.376Z,49.52
2018-08-23T12:26:47.077Z,49.03
2018-08-23T12:29:51.126Z,47.67
2018-08-23T12:32:55.000Z,47.53
2018-08-23T12:35:58.704Z,47.40
2018-08-23T12:39:07.672Z,47.10
2018-08-23T12:42:16.657Z,46.53
2018-08-23T12:45:20.517Z,46.78
2018-08-23T12:48:24.301Z,46.37
2018-08-23T12:51:27.983Z,47.45
2018-08-23T12:54:31.611Z,46.19
2018-08-23T12:57:35.300Z,45.06
2018-08-23T13:00:39.993Z,45.42
2018-08-23T13:03:43.626Z,45.36
2018-08-23T13:06:47.269Z,46.51
2018-08-23T13:09:50.956Z,45.85
2018-08-23T13:12:54.591Z,46.14
2018-08-23T13:15:58.396Z,44.95
2018-08-23T13:19:02.099Z,45.11
2018-08-23T13:22:06.033Z,44.70
2018-08-23T13:25:11.516Z,43.86
2018-08-23T13:28:15.349Z,44.00
2018-08-23T13:31:19.036Z,44.09
2018-08-23T13:34:22.752Z,44.46
2018-08-23T13:37:26.790Z,43.91
2018-08-23T13:40:30.477Z,44.19
2018-08-23T13:43:34.280Z,44.33
2018-08-23T13:46:38.079Z,43.94
2018-08-23T13:49:41.759Z,43.52
2018-08-23T13:52:45.558Z,43.80
2018-08-23T13:55:49.248Z,44.27
2018-08-23T13:58:53.602Z,44.62
2018-08-23T14:01:57.266Z,43.40
2018-08-23T14:05:00.898Z,43.89
2018-08-23T14:08:04.556Z,45.20
2018-08-23T14:11:08.357Z,44.53
2018-08-23T14:14:12.002Z,43.57
2018-08-23T14:17:15.718Z,43.88
2018-08-23T14:20:19.573Z,42.85
2018-08-23T14:23:23.289Z,44.30
2018-08-23T14:26:26.911Z,44.09
2018-08-23T14:29:30.643Z,44.34
2018-08-23T14:32:34.496Z,43.94
2018-08-23T14:35:38.257Z,43.76
2018-08-23T14:38:41.942Z,43.79
2018-08-23T14:41:45.873Z,43.53
2018-08-23T14:44:49.478Z,44.69
2018-08-23T14:47:58.346Z,44.00
2018-08-23T14:51:02.246Z,44.30
2018-08-23T14:54:11.178Z,44.47
2018-08-23T14:57:20.114Z,45.59
2018-08-23T15:00:23.745Z,44.97
2018-08-23T15:03:27.597Z,45.21
2018-08-23T15:06:31.452Z,44.76
2018-08-23T15:09:35.157Z,44.96
2018-08-23T15:12:38.889Z,45.88
2018-08-23T15:15:49.613Z,45.98
2018-08-23T15:18:53.267Z,45.10
2018-08-23T15:21:56.963Z,44.60
2018-08-23T15:25:00.629Z,44.68
2018-08-23T15:28:04.338Z,44.45
2018-08-23T15:31:08.041Z,43.72
2018-08-23T15:34:12.004Z,44.62
2018-08-23T15:37:15.735Z,44.40
2018-08-23T15:40:19.433Z,45.06
2018-08-23T15:43:24.119Z,45.23
2018-08-23T15:46:31.947Z,45.97
2018-08-23T15:49:35.672Z,46.23
2018-08-23T15:52:39.423Z,45.57
2018-08-23T15:55:43.229Z,45.27
2018-08-23T15:58:46.898Z,44.76
2018-08-23T16:01:50.551Z,45.39
2018-08-23T16:04:54.325Z,46.08
2018-08-23T16:07:58.042Z,46.17
2018-08-23T16:11:01.720Z,46.72
2018-08-23T16:14:05.513Z,46.79
2018-08-23T16:17:14.375Z,45.95
2018-08-23T16:20:23.251Z,45.97
2018-08-23T16:23:27.018Z,46.29
2018-08-23T16:26:35.943Z,46.85
2018-08-23T16:29:39.683Z,47.40
2018-08-23T16:32:43.393Z,47.99
2018-08-23T16:35:47.014Z,47.86
2018-08-23T16:38:50.691Z,47.94
2018-08-23T16:41:54.462Z,47.68
2018-08-23T16:44:58.141Z,47.95
2018-08-23T16:48:01.918Z,48.84
2018-08-23T16:51:05.612Z,48.03
2018-08-23T16:54:09.428Z,47.91
2018-08-23T16:57:13.038Z,48.26
2018-08-23T17:00:16.798Z,48.18
2018-08-23T17:03:20.510Z,48.47
2018-08-23T17:06:25.704Z,48.45
2018-08-23T17:09:29.334Z,48.81
2018-08-23T17:12:33.057Z,49.82
2018-08-23T17:15:41.928Z,49.85
2018-08-23T17:18:45.756Z,50.15
2018-08-23T17:21:49.366Z,50.26
2018-08-23T17:24:53.240Z,50.31
2018-08-23T17:27:56.884Z,50.61
2018-08-23T17:31:00.910Z,50.51
2018-08-23T17:34:04.600Z,50.84
2018-08-23T17:37:08.419Z,51.45
2018-08-23T17:40:12.323Z,50.64
2018-08-23T17:43:16.053Z,51.32
2018-08-23T17:46:19.748Z,50.76
2018-08-23T17:49:23.437Z,50.86
2018-08-23T17:52:27.406Z,51.22
2018-08-23T17:55:31.218Z,52.10
2018-08-23T17:58:34.965Z,52.19
2018-08-23T18:01:38.890Z,52.34
2018-08-23T18:04:42.753Z,52.64
2018-08-23T18:07:46.452Z,53.07
2018-08-23T18:10:50.224Z,53.67
2018-08-23T18:13:53.955Z,54.27
2018-08-23T18:17:00.965Z,55.13
2018-08-23T18:20:04.941Z,55.89
2018-08-23T18:23:08.693Z,56.50
2018-08-23T18:26:12.569Z,57.10
2018-08-23T18:29:16.381Z,57.00
2018-08-23T18:32:20.099Z,58.67
2018-08-23T18:35:23.914Z,58.31
2018-08-23T18:38:27.750Z,58.49
2018-08-23T18:41:31.438Z,58.73
2018-08-23T18:44:35.160Z,59.11
2018-08-23T18:47:38.924Z,58.77
2018-08-23T18:50:42.590Z,59.25
2018-08-23T18:53:46.264Z,59.56
2018-08-23T18:56:49.940Z,59.78
2018-08-23T18:59:53.715Z,59.85
2018-08-23T19:02:57.469Z,60.10
2018-08-23T19:06:01.233Z,60.14
2018-08-23T19:09:08.438Z,60.19
2018-08-23T19:12:12.265Z,60.13
2018-08-23T19:15:20.490Z,60.81
2018-08-23T19:18:24.412Z,61.52
2018-08-23T19:21:28.126Z,61.76
2018-08-23T19:24:31.908Z,62.20
2018-08-23T19:27:35.800Z,62.94
2018-08-23T19:30:39.609Z,62.42
2018-08-23T19:33:43.460Z,62.21
2018-08-23T19:36:47.648Z,62.06
2018-08-23T19:39:51.631Z,62.22
2018-08-23T19:42:55.398Z,62.62
2018-08-23T19:46:06.028Z,62.78
2018-08-23T19:49:14.927Z,62.73
2018-08-23T19:52:18.862Z,62.94
2018-08-23T19:55:22.761Z,63.69
2018-08-23T19:58:26.676Z,63.77
2018-08-23T20:01:30.469Z,64.18
2018-08-23T20:04:34.248Z,64.31
2018-08-23T20:07:38.856Z,64.77
2018-08-23T20:10:42.681Z,64.71
2018-08-23T20:13:46.436Z,65.13
2018-08-23T20:16:50.235Z,64.96
2018-08-23T20:19:54.040Z,65.64
2018-08-23T20:22:57.815Z,66.14
2018-08-23T20:26:01.667Z,66.26
2018-08-23T20:29:05.738Z,67.05
2018-08-23T20:32:09.591Z,67.02
2018-08-23T20:35:13.292Z,67.66
2018-08-23T20:38:17.106Z,68.02
2018-08-23T20:41:20.871Z,67.95
2018-08-23T20:44:24.754Z,68.32
2018-08-23T20:47:28.521Z,68.30
2018-08-23T20:50:32.210Z,68.44
2018-08-23T20:53:36.167Z,68.85
2018-08-23T20:56:39.850Z,69.53
2018-08-23T20:59:43.642Z,69.87
2018-08-23T21:02:47.387Z,70.03
2018-08-23T21:05:51.069Z,70.11
2018-08-23T21:08:54.912Z,70.69
2018-08-23T21:11:58.647Z,70.36
2018-08-23T21:15:02.535Z,71.00
2018-08-23T21:18:08.748Z,71.58
2018-08-23T21:21:12.392Z,72.68
2018-08-23T21:24:16.180Z,72.66
2018-08-23T21:27:19.880Z,73.27
2018-08-23T21:30:23.620Z,73.11
2018-08-23T21:33:27.542Z,73.71
2018-08-23T21:36:31.340Z,73.43
2018-08-23T21:39:35.125Z,74.36
2018-08-23T21:42:38.960Z,75.08
2018-08-23T21:45:42.718Z,75.65
2018-08-23T21:48:46.531Z,76.29
2018-08-23T21:51:50.360Z,77.17
2018-08-23T21:54:54.044Z,77.23
2018-08-23T21:57:57.779Z,78.29
2018-08-23T22:01:09.729Z,77.78
2018-08-23T22:04:13.396Z,78.53
2018-08-23T22:07:17.277Z,79.35
2018-08-23T22:10:21.015Z,78.99
2018-08-23T22:13:24.699Z,78.30
2018-08-23T22:16:28.405Z,78.22
2018-08-23T22:19:32.247Z,77.16
2018-08-23T22:22:35.990Z,76.42
2018-08-23T22:25:40.258Z,75.64
2018-08-23T22:28:43.867Z,75.72
2018-08-23T22:31:47.562Z,76.29
2018-08-23T22:34:51.426Z,75.45
2018-08-23T22:37:55.292Z,75.75
2018-08-23T22:40:59.031Z,76.23
2018-08-23T22:44:02.888Z,76.32
2018-08-23T22:47:06.792Z,76.01
2018-08-23T22:50:10.597Z,76.10
2018-08-23T22:53:14.253Z,76.06
2018-08-23T22:56:17.827Z,76.52
2018-08-23T22:59:21.565Z,76.27
2018-08-23T23:02:30.404Z,77.01
2018-08-23T23:05:34.025Z,76.91
2018-08-23T23:08:37.696Z,77.23
2018-08-23T23:11:41.572Z,77.90
2018-08-23T23:14:45.188Z,77.64
2018-08-23T23:17:49.004Z,78.06
2018-08-23T23:20:52.626Z,78.03
2018-08-23T23:23:56.247Z,78.38
2018-08-23T23:26:59.845Z,79.10
2018-08-23T23:30:03.650Z,78.71
2018-08-23T23:33:07.230Z,78.32
2018-08-23T23:36:11.097Z,77.99
2018-08-23T23:39:14.973Z,77.80
2018-08-23T23:42:18.622Z,78.20
2018-08-23T23:45:22.243Z,78.64
2018-08-23T23:48:25.850Z,78.77
2018-08-23T23:51:29.655Z,78.96
2018-08-23T23:54:33.277Z,79.07
2018-08-23T23:57:37.073Z,79.16
